MCAS Cherry Point, North Carolina
Current Conditions -  °F | °C
As of 12:01 PM on Monday 22 Dec 2014 (Local Time) from KNKT Reporting Station
Light Rain Light Rain  
Wind Chill: 45°   Ceiling: 500
Heat Index: 49°   Visibility: 10mi
Dew Point: 47°   Wind: 10mph
Humidity: 93%   Direction: 340°NNW
Pressure: 30.03"   Gusts: NA
Location:  34.8973°N, 76.9091°W
Report Text: KNKT 221701Z 34009KT 10SM -RA BR OVC005 09/08 A3003 RMK AO2 P0000 T00940083 $
Loading
Personal Weather Stations






























Interactive Weather Map New forecast layout! Learn more

10-Day Weather Forecast

Advertisements
Track Severe Weather on mobile